sensor_id;sensor_type;location;lat;lon;timestamp;temperature;humidity
1880;DHT22;49285;49.002;8.390;2022-08-05T00:01:40;30.70;48.80
1880;DHT22;49285;49.002;8.390;2022-08-05T00:04:06;30.60;48.80
1880;DHT22;49285;49.002;8.390;2022-08-05T00:06:32;30.50;49.10
1880;DHT22;49285;49.002;8.390;2022-08-05T00:08:58;30.50;49.20
1880;DHT22;49285;49.002;8.390;2022-08-05T00:11:24;30.40;49.70
1880;DHT22;49285;49.002;8.390;2022-08-05T00:13:50;30.40;49.60
1880;DHT22;49285;49.002;8.390;2022-08-05T00:16:16;30.30;49.80
1880;DHT22;49285;49.002;8.390;2022-08-05T00:18:45;30.30;50.10
1880;DHT22;49285;49.002;8.390;2022-08-05T00:21:13;30.20;50.10
1880;DHT22;49285;49.002;8.390;2022-08-05T00:23:39;30.20;50.00
1880;DHT22;49285;49.002;8.390;2022-08-05T00:26:05;30.20;50.20
1880;DHT22;49285;49.002;8.390;2022-08-05T00:28:31;30.20;50.40
1880;DHT22;49285;49.002;8.390;2022-08-05T00:30:57;30.30;50.50
1880;DHT22;49285;49.002;8.390;2022-08-05T00:33:22;30.20;50.50
1880;DHT22;49285;49.002;8.390;2022-08-05T00:35:48;30.20;50.60
1880;DHT22;49285;49.002;8.390;2022-08-05T00:38:14;30.30;50.90
1880;DHT22;49285;49.002;8.390;2022-08-05T00:40:48;30.40;51.80
1880;DHT22;49285;49.002;8.390;2022-08-05T00:43:14;30.50;52.40
1880;DHT22;49285;49.002;8.390;2022-08-05T00:45:39;30.50;52.70
1880;DHT22;49285;49.002;8.390;2022-08-05T00:48:11;30.50;52.80
1880;DHT22;49285;49.002;8.390;2022-08-05T00:50:39;30.60;53.20
1880;DHT22;49285;49.002;8.390;2022-08-05T00:53:05;30.60;53.50
1880;DHT22;49285;49.002;8.390;2022-08-05T00:55:31;30.60;53.90
1880;DHT22;49285;49.002;8.390;2022-08-05T00:57:56;30.60;54.00
1880;DHT22;49285;49.002;8.390;2022-08-05T01:00:22;30.60;54.40
1880;DHT22;49285;49.002;8.390;2022-08-05T01:02:48;30.60;54.60
1880;DHT22;49285;49.002;8.390;2022-08-05T01:05:13;30.50;55.00
1880;DHT22;49285;49.002;8.390;2022-08-05T01:07:39;30.50;55.00
1880;DHT22;49285;49.002;8.390;2022-08-05T01:10:09;30.50;55.10
1880;DHT22;49285;49.002;8.390;2022-08-05T01:12:37;30.50;55.30
1880;DHT22;49285;49.002;8.390;2022-08-05T01:15:05;30.50;55.50
1880;DHT22;49285;49.002;8.390;2022-08-05T01:17:50;30.50;55.60
1880;DHT22;49285;49.002;8.390;2022-08-05T01:23:27;30.50;55.80
1880;DHT22;49285;49.002;8.390;2022-08-05T01:26:13;30.40;55.90
1880;DHT22;49285;49.002;8.390;2022-08-05T01:32:03;30.40;56.30
1880;DHT22;49285;49.002;8.390;2022-08-05T01:34:25;30.40;56.60
1880;DHT22;49285;49.002;8.390;2022-08-05T01:37:01;30.30;56.50
1880;DHT22;49285;49.002;8.390;2022-08-05T01:39:29;30.30;56.70
1880;DHT22;49285;49.002;8.390;2022-08-05T01:41:57;30.30;56.70
1880;DHT22;49285;49.002;8.390;2022-08-05T01:44:24;30.30;56.80
1880;DHT22;49285;49.002;8.390;2022-08-05T01:46:51;30.30;57.00
1880;DHT22;49285;49.002;8.390;2022-08-05T01:49:21;30.20;57.10
1880;DHT22;49285;49.002;8.390;2022-08-05T01:51:48;30.20;57.20
1880;DHT22;49285;49.002;8.390;2022-08-05T01:54:15;30.20;57.40
1880;DHT22;49285;49.002;8.390;2022-08-05T01:56:42;30.20;57.70
1880;DHT22;49285;49.002;8.390;2022-08-05T01:59:12;30.10;57.70
1880;DHT22;49285;49.002;8.390;2022-08-05T02:01:40;30.10;57.90
1880;DHT22;49285;49.002;8.390;2022-08-05T02:04:08;30.10;58.00
1880;DHT22;49285;49.002;8.390;2022-08-05T02:06:34;30.10;58.20
1880;DHT22;49285;49.002;8.390;2022-08-05T02:09:00;30.00;58.40
1880;DHT22;49285;49.002;8.390;2022-08-05T02:11:33;30.00;58.50
1880;DHT22;49285;49.002;8.390;2022-08-05T02:14:08;30.00;58.70
1880;DHT22;49285;49.002;8.390;2022-08-05T02:16:48;30.00;59.50
1880;DHT22;49285;49.002;8.390;2022-08-05T02:19:36;30.00;59.10
1880;DHT22;49285;49.002;8.390;2022-08-05T02:24:38;29.90;59.40
1880;DHT22;49285;49.002;8.390;2022-08-05T02:27:07;29.90;59.50
1880;DHT22;49285;49.002;8.390;2022-08-05T02:29:35;29.90;59.70
1880;DHT22;49285;49.002;8.390;2022-08-05T02:32:02;29.90;59.90
1880;DHT22;49285;49.002;8.390;2022-08-05T02:34:30;29.90;60.00
1880;DHT22;49285;49.002;8.390;2022-08-05T02:36:59;29.90;60.00
1880;DHT22;49285;49.002;8.390;2022-08-05T02:39:29;29.90;60.20
1880;DHT22;49285;49.002;8.390;2022-08-05T02:41:59;29.90;60.40
1880;DHT22;49285;49.002;8.390;2022-08-05T02:44:26;29.90;60.50
1880;DHT22;49285;49.002;8.390;2022-08-05T02:46:55;29.90;60.70
1880;DHT22;49285;49.002;8.390;2022-08-05T02:49:22;29.90;61.00
1880;DHT22;49285;49.002;8.390;2022-08-05T02:51:49;29.80;61.20
1880;DHT22;49285;49.002;8.390;2022-08-05T02:54:16;29.80;61.20
1880;DHT22;49285;49.002;8.390;2022-08-05T02:56:42;29.80;61.50
1880;DHT22;49285;49.002;8.390;2022-08-05T02:59:09;29.80;61.50
1880;DHT22;49285;49.002;8.390;2022-08-05T03:01:36;29.80;61.50
1880;DHT22;49285;49.002;8.390;2022-08-05T03:04:08;29.80;61.50
1880;DHT22;49285;49.002;8.390;2022-08-05T03:06:35;29.80;61.60
1880;DHT22;49285;49.002;8.390;2022-08-05T03:09:02;29.80;61.80
1880;DHT22;49285;49.002;8.390;2022-08-05T03:11:28;29.70;62.20
1880;DHT22;49285;49.002;8.390;2022-08-05T03:13:54;29.60;62.50
1880;DHT22;49285;49.002;8.390;2022-08-05T03:16:20;29.60;62.40
1880;DHT22;49285;49.002;8.390;2022-08-05T03:18:46;29.60;62.40
1880;DHT22;49285;49.002;8.390;2022-08-05T03:21:12;29.60;62.20
1880;DHT22;49285;49.002;8.390;2022-08-05T03:23:40;29.60;62.10
1880;DHT22;49285;49.002;8.390;2022-08-05T03:26:06;29.60;62.50
1880;DHT22;49285;49.002;8.390;2022-08-05T03:28:33;29.60;62.30
1880;DHT22;49285;49.002;8.390;2022-08-05T03:31:00;29.60;62.30
1880;DHT22;49285;49.002;8.390;2022-08-05T03:33:27;29.60;62.30
1880;DHT22;49285;49.002;8.390;2022-08-05T03:35:54;29.50;62.30
1880;DHT22;49285;49.002;8.390;2022-08-05T03:38:21;29.50;62.20
1880;DHT22;49285;49.002;8.390;2022-08-05T03:40:47;29.50;62.60
1880;DHT22;49285;49.002;8.390;2022-08-05T03:43:14;29.40;62.90
1880;DHT22;49285;49.002;8.390;2022-08-05T03:45:39;29.30;63.50
1880;DHT22;49285;49.002;8.390;2022-08-05T03:48:05;29.40;63.30
1880;DHT22;49285;49.002;8.390;2022-08-05T03:53:59;29.40;64.10
1880;DHT22;49285;49.002;8.390;2022-08-05T03:56:47;29.40;66.00
1880;DHT22;49285;49.002;8.390;2022-08-05T03:59:22;29.40;66.30
1880;DHT22;49285;49.002;8.390;2022-08-05T04:01:50;29.40;68.40
1880;DHT22;49285;49.002;8.390;2022-08-05T04:04:19;29.40;68.20
1880;DHT22;49285;49.002;8.390;2022-08-05T04:06:46;29.40;68.20
1880;DHT22;49285;49.002;8.390;2022-08-05T04:09:12;29.40;68.30
1880;DHT22;49285;49.002;8.390;2022-08-05T04:11:39;29.40;69.80
1880;DHT22;49285;49.002;8.390;2022-08-05T04:14:05;29.30;69.80
1880;DHT22;49285;49.002;8.390;2022-08-05T04:16:32;29.20;70.10
1880;DHT22;49285;49.002;8.390;2022-08-05T04:19:00;29.20;70.80
1880;DHT22;49285;49.002;8.390;2022-08-05T04:21:26;29.00;70.90
1880;DHT22;49285;49.002;8.390;2022-08-05T04:23:52;29.10;71.80
1880;DHT22;49285;49.002;8.390;2022-08-05T04:26:18;29.00;71.50
1880;DHT22;49285;49.002;8.390;2022-08-05T04:28:43;28.90;72.40
1880;DHT22;49285;49.002;8.390;2022-08-05T04:31:09;28.80;72.10
1880;DHT22;49285;49.002;8.390;2022-08-05T04:33:35;28.80;72.40
1880;DHT22;49285;49.002;8.390;2022-08-05T04:36:00;28.70;72.90
1880;DHT22;49285;49.002;8.390;2022-08-05T04:38:27;28.70;73.10
1880;DHT22;49285;49.002;8.390;2022-08-05T04:40:53;28.60;73.20
1880;DHT22;49285;49.002;8.390;2022-08-05T04:43:19;28.50;72.80
1880;DHT22;49285;49.002;8.390;2022-08-05T04:45:45;28.60;72.90
1880;DHT22;49285;49.002;8.390;2022-08-05T04:48:13;28.60;71.60
1880;DHT22;49285;49.002;8.390;2022-08-05T04:50:40;28.50;70.20
1880;DHT22;49285;49.002;8.390;2022-08-05T04:53:11;28.60;70.70
1880;DHT22;49285;49.002;8.390;2022-08-05T04:55:37;28.50;70.00
1880;DHT22;49285;49.002;8.390;2022-08-05T04:58:04;28.20;70.50
1880;DHT22;49285;49.002;8.390;2022-08-05T05:00:33;28.10;70.70
1880;DHT22;49285;49.002;8.390;2022-08-05T05:03:00;27.90;70.60
1880;DHT22;49285;49.002;8.390;2022-08-05T05:05:25;27.80;71.40
1880;DHT22;49285;49.002;8.390;2022-08-05T05:07:51;27.90;70.80
1880;DHT22;49285;49.002;8.390;2022-08-05T05:10:17;28.00;70.50
1880;DHT22;49285;49.002;8.390;2022-08-05T05:12:42;28.10;70.20
1880;DHT22;49285;49.002;8.390;2022-08-05T05:15:09;28.20;70.80
1880;DHT22;49285;49.002;8.390;2022-08-05T05:17:42;28.10;70.50
1880;DHT22;49285;49.002;8.390;2022-08-05T05:20:09;28.00;69.20
1880;DHT22;49285;49.002;8.390;2022-08-05T05:22:36;28.10;69.40
1880;DHT22;49285;49.002;8.390;2022-08-05T05:25:02;28.20;69.40
1880;DHT22;49285;49.002;8.390;2022-08-05T05:27:29;28.10;69.50
1880;DHT22;49285;49.002;8.390;2022-08-05T05:29:55;27.90;69.60
1880;DHT22;49285;49.002;8.390;2022-08-05T05:32:21;27.90;70.10
1880;DHT22;49285;49.002;8.390;2022-08-05T05:34:47;28.00;69.40
1880;DHT22;49285;49.002;8.390;2022-08-05T05:37:12;28.10;68.60
1880;DHT22;49285;49.002;8.390;2022-08-05T05:39:39;28.10;68.50
1880;DHT22;49285;49.002;8.390;2022-08-05T05:42:05;28.10;69.20
1880;DHT22;49285;49.002;8.390;2022-08-05T05:44:31;28.10;69.40
1880;DHT22;49285;49.002;8.390;2022-08-05T05:46:57;28.00;69.80
1880;DHT22;49285;49.002;8.390;2022-08-05T05:49:22;28.00;69.60
1880;DHT22;49285;49.002;8.390;2022-08-05T05:51:48;27.90;69.40
1880;DHT22;49285;49.002;8.390;2022-08-05T05:54:14;28.00;69.40
1880;DHT22;49285;49.002;8.390;2022-08-05T05:56:39;28.00;68.70
1880;DHT22;49285;49.002;8.390;2022-08-05T05:59:05;28.00;69.50
1880;DHT22;49285;49.002;8.390;2022-08-05T06:01:32;28.00;69.20
1880;DHT22;49285;49.002;8.390;2022-08-05T06:03:58;28.00;69.60
1880;DHT22;49285;49.002;8.390;2022-08-05T06:06:24;28.00;70.30
1880;DHT22;49285;49.002;8.390;2022-08-05T06:08:49;28.10;70.30
1880;DHT22;49285;49.002;8.390;2022-08-05T06:11:15;28.10;70.20
1880;DHT22;49285;49.002;8.390;2022-08-05T06:13:40;28.10;70.40
1880;DHT22;49285;49.002;8.390;2022-08-05T06:16:06;28.10;69.70
1880;DHT22;49285;49.002;8.390;2022-08-05T06:18:32;28.10;69.20
1880;DHT22;49285;49.002;8.390;2022-08-05T06:20:58;27.90;69.60
1880;DHT22;49285;49.002;8.390;2022-08-05T06:23:23;28.00;69.90
1880;DHT22;49285;49.002;8.390;2022-08-05T06:25:49;28.00;69.90
1880;DHT22;49285;49.002;8.390;2022-08-05T06:28:15;28.00;69.90
1880;DHT22;49285;49.002;8.390;2022-08-05T06:30:41;27.80;69.90
1880;DHT22;49285;49.002;8.390;2022-08-05T06:33:07;28.00;70.10
1880;DHT22;49285;49.002;8.390;2022-08-05T06:35:33;27.90;70.40
1880;DHT22;49285;49.002;8.390;2022-08-05T06:37:58;27.80;70.80
1880;DHT22;49285;49.002;8.390;2022-08-05T06:40:24;27.90;70.80
1880;DHT22;49285;49.002;8.390;2022-08-05T06:42:50;27.90;70.70
1880;DHT22;49285;49.002;8.390;2022-08-05T06:45:16;28.00;70.60
1880;DHT22;49285;49.002;8.390;2022-08-05T06:47:41;28.10;70.50
1880;DHT22;49285;49.002;8.390;2022-08-05T06:50:07;28.10;69.70
1880;DHT22;49285;49.002;8.390;2022-08-05T06:52:33;28.10;69.90
1880;DHT22;49285;49.002;8.390;2022-08-05T06:54:59;28.20;69.10
1880;DHT22;49285;49.002;8.390;2022-08-05T06:57:24;28.20;68.80
1880;DHT22;49285;49.002;8.390;2022-08-05T06:59:50;28.20;68.60
1880;DHT22;49285;49.002;8.390;2022-08-05T07:02:16;28.20;68.40
1880;DHT22;49285;49.002;8.390;2022-08-05T07:04:41;28.30;68.30
1880;DHT22;49285;49.002;8.390;2022-08-05T07:07:07;28.30;67.30
1880;DHT22;49285;49.002;8.390;2022-08-05T07:09:33;28.30;67.00
1880;DHT22;49285;49.002;8.390;2022-08-05T07:11:58;28.30;67.50
1880;DHT22;49285;49.002;8.390;2022-08-05T07:14:24;28.30;66.20
1880;DHT22;49285;49.002;8.390;2022-08-05T07:17:08;28.40;65.80
1880;DHT22;49285;49.002;8.390;2022-08-05T07:19:34;28.50;65.40
1880;DHT22;49285;49.002;8.390;2022-08-05T07:22:00;28.50;64.80
1880;DHT22;49285;49.002;8.390;2022-08-05T07:24:25;28.40;64.70
1880;DHT22;49285;49.002;8.390;2022-08-05T07:26:51;28.50;65.00
1880;DHT22;49285;49.002;8.390;2022-08-05T07:29:17;28.40;65.40
1880;DHT22;49285;49.002;8.390;2022-08-05T07:31:43;28.50;65.70
1880;DHT22;49285;49.002;8.390;2022-08-05T07:34:08;28.50;66.10
1880;DHT22;49285;49.002;8.390;2022-08-05T07:36:34;28.50;65.90
1880;DHT22;49285;49.002;8.390;2022-08-05T07:39:04;28.50;66.50
1880;DHT22;49285;49.002;8.390;2022-08-05T07:41:31;28.60;66.10
1880;DHT22;49285;49.002;8.390;2022-08-05T07:43:58;28.60;66.10
1880;DHT22;49285;49.002;8.390;2022-08-05T07:46:25;28.60;65.60
1880;DHT22;49285;49.002;8.390;2022-08-05T07:48:57;28.70;64.90
1880;DHT22;49285;49.002;8.390;2022-08-05T07:51:23;28.80;64.50
1880;DHT22;49285;49.002;8.390;2022-08-05T07:53:49;28.80;64.00
1880;DHT22;49285;49.002;8.390;2022-08-05T07:56:15;28.80;64.00
1880;DHT22;49285;49.002;8.390;2022-08-05T07:58:41;28.90;64.10
1880;DHT22;49285;49.002;8.390;2022-08-05T08:01:07;29.00;63.80
1880;DHT22;49285;49.002;8.390;2022-08-05T08:03:33;29.00;63.20
1880;DHT22;49285;49.002;8.390;2022-08-05T08:05:58;29.00;63.60
1880;DHT22;49285;49.002;8.390;2022-08-05T08:08:24;29.00;63.90
1880;DHT22;49285;49.002;8.390;2022-08-05T08:10:50;29.00;63.90
1880;DHT22;49285;49.002;8.390;2022-08-05T08:13:15;29.00;63.90
1880;DHT22;49285;49.002;8.390;2022-08-05T08:15:41;29.10;63.10
1880;DHT22;49285;49.002;8.390;2022-08-05T08:18:07;29.20;62.70
1880;DHT22;49285;49.002;8.390;2022-08-05T08:20:32;29.20;62.70
1880;DHT22;49285;49.002;8.390;2022-08-05T08:22:59;29.20;62.90
1880;DHT22;49285;49.002;8.390;2022-08-05T08:25:26;29.20;62.20
1880;DHT22;49285;49.002;8.390;2022-08-05T08:27:55;29.30;61.70
1880;DHT22;49285;49.002;8.390;2022-08-05T08:30:21;29.30;61.50
1880;DHT22;49285;49.002;8.390;2022-08-05T08:32:46;29.40;61.40
1880;DHT22;49285;49.002;8.390;2022-08-05T08:35:12;29.60;60.40
1880;DHT22;49285;49.002;8.390;2022-08-05T08:37:38;29.50;60.10
1880;DHT22;49285;49.002;8.390;2022-08-05T08:40:04;29.40;60.50
1880;DHT22;49285;49.002;8.390;2022-08-05T08:42:31;29.60;60.70
1880;DHT22;49285;49.002;8.390;2022-08-05T08:44:58;29.60;60.40
1880;DHT22;49285;49.002;8.390;2022-08-05T08:47:26;29.70;59.70
1880;DHT22;49285;49.002;8.390;2022-08-05T08:49:55;29.90;59.50
1880;DHT22;49285;49.002;8.390;2022-08-05T08:52:29;30.10;58.60
1880;DHT22;49285;49.002;8.390;2022-08-05T08:54:55;30.30;58.00
1880;DHT22;49285;49.002;8.390;2022-08-05T08:57:21;30.40;57.60
1880;DHT22;49285;49.002;8.390;2022-08-05T08:59:50;30.30;57.90
1880;DHT22;49285;49.002;8.390;2022-08-05T09:02:18;30.40;57.80
1880;DHT22;49285;49.002;8.390;2022-08-05T09:04:45;30.40;57.80
1880;DHT22;49285;49.002;8.390;2022-08-05T09:07:11;30.40;57.60
1880;DHT22;49285;49.002;8.390;2022-08-05T09:09:38;30.30;57.90
1880;DHT22;49285;49.002;8.390;2022-08-05T09:12:08;30.40;57.90
1880;DHT22;49285;49.002;8.390;2022-08-05T09:14:37;30.40;57.20
1880;DHT22;49285;49.002;8.390;2022-08-05T09:17:06;30.40;57.20
1880;DHT22;49285;49.002;8.390;2022-08-05T09:19:32;30.50;57.10
1880;DHT22;49285;49.002;8.390;2022-08-05T09:21:58;30.40;57.20
1880;DHT22;49285;49.002;8.390;2022-08-05T09:24:23;30.40;57.00
1880;DHT22;49285;49.002;8.390;2022-08-05T09:26:50;30.30;56.70
1880;DHT22;49285;49.002;8.390;2022-08-05T09:29:16;30.30;57.00
1880;DHT22;49285;49.002;8.390;2022-08-05T09:31:42;30.30;57.00
1880;DHT22;49285;49.002;8.390;2022-08-05T09:34:09;30.40;56.80
1880;DHT22;49285;49.002;8.390;2022-08-05T09:36:49;30.50;56.20
1880;DHT22;49285;49.002;8.390;2022-08-05T09:39:17;30.40;56.60
1880;DHT22;49285;49.002;8.390;2022-08-05T09:41:57;30.40;56.70
1880;DHT22;49285;49.002;8.390;2022-08-05T09:44:37;30.50;56.70
1880;DHT22;49285;49.002;8.390;2022-08-05T09:47:14;30.40;56.40
1880;DHT22;49285;49.002;8.390;2022-08-05T09:52:27;30.60;56.50
1880;DHT22;49285;49.002;8.390;2022-08-05T09:54:53;30.50;56.20
1880;DHT22;49285;49.002;8.390;2022-08-05T09:57:40;30.40;56.40
1880;DHT22;49285;49.002;8.390;2022-08-05T10:02:44;30.50;56.40
1880;DHT22;49285;49.002;8.390;2022-08-05T10:05:16;30.60;56.20
1880;DHT22;49285;49.002;8.390;2022-08-05T10:07:51;30.70;56.40
1880;DHT22;49285;49.002;8.390;2022-08-05T10:10:23;30.70;56.50
1880;DHT22;49285;49.002;8.390;2022-08-05T10:12:54;30.70;56.80
1880;DHT22;49285;49.002;8.390;2022-08-05T10:15:26;30.70;57.10
1880;DHT22;49285;49.002;8.390;2022-08-05T10:20:51;30.70;56.60
1880;DHT22;49285;49.002;8.390;2022-08-05T10:23:24;30.80;56.20
1880;DHT22;49285;49.002;8.390;2022-08-05T10:25:50;30.80;56.30
1880;DHT22;49285;49.002;8.390;2022-08-05T10:28:16;30.80;56.40
1880;DHT22;49285;49.002;8.390;2022-08-05T10:30:42;30.80;56.60
1880;DHT22;49285;49.002;8.390;2022-08-05T10:33:08;30.90;56.80
1880;DHT22;49285;49.002;8.390;2022-08-05T10:35:35;31.00;56.70
1880;DHT22;49285;49.002;8.390;2022-08-05T10:38:01;31.00;56.40
1880;DHT22;49285;49.002;8.390;2022-08-05T10:45:55;30.60;56.60
1880;DHT22;49285;49.002;8.390;2022-08-05T10:48:33;30.60;56.50
1880;DHT22;49285;49.002;8.390;2022-08-05T10:51:00;30.70;56.40
1880;DHT22;49285;49.002;8.390;2022-08-05T10:53:53;30.70;56.40
1880;DHT22;49285;49.002;8.390;2022-08-05T10:56:25;30.70;55.90
1880;DHT22;49285;49.002;8.390;2022-08-05T11:04:10;31.10;55.80
1880;DHT22;49285;49.002;8.390;2022-08-05T11:15:18;31.50;55.90
1880;DHT22;49285;49.002;8.390;2022-08-05T11:17:53;31.60;55.40
1880;DHT22;49285;49.002;8.390;2022-08-05T11:20:46;31.60;55.60
1880;DHT22;49285;49.002;8.390;2022-08-05T11:33:32;32.00;54.90
1880;DHT22;49285;49.002;8.390;2022-08-05T11:36:00;32.00;54.70
1880;DHT22;49285;49.002;8.390;2022-08-05T11:38:50;31.90;55.20
1880;DHT22;49285;49.002;8.390;2022-08-05T11:41:26;31.90;55.70
1880;DHT22;49285;49.002;8.390;2022-08-05T11:46:27;31.90;56.20
1880;DHT22;49285;49.002;8.390;2022-08-05T11:48:54;32.10;56.10
1880;DHT22;49285;49.002;8.390;2022-08-05T11:51:21;32.10;56.30
1880;DHT22;49285;49.002;8.390;2022-08-05T11:53:47;32.20;56.20
1880;DHT22;49285;49.002;8.390;2022-08-05T11:56:14;32.30;55.90
1880;DHT22;49285;49.002;8.390;2022-08-05T11:58:41;32.40;55.70
1880;DHT22;49285;49.002;8.390;2022-08-05T12:01:13;32.70;55.70
1880;DHT22;49285;49.002;8.390;2022-08-05T12:03:53;32.90;55.30
1880;DHT22;49285;49.002;8.390;2022-08-05T12:06:24;33.10;54.80
1880;DHT22;49285;49.002;8.390;2022-08-05T12:08:54;33.20;53.80
1880;DHT22;49285;49.002;8.390;2022-08-05T12:11:25;33.30;54.00
1880;DHT22;49285;49.002;8.390;2022-08-05T12:13:59;33.80;53.50
1880;DHT22;49285;49.002;8.390;2022-08-05T12:16:28;34.30;53.10
1880;DHT22;49285;49.002;8.390;2022-08-05T12:18:56;34.30;53.00
1880;DHT22;49285;49.002;8.390;2022-08-05T12:21:32;34.80;51.60
1880;DHT22;49285;49.002;8.390;2022-08-05T12:24:07;34.90;51.10
1880;DHT22;49285;49.002;8.390;2022-08-05T12:26:34;34.90;51.00
1880;DHT22;49285;49.002;8.390;2022-08-05T12:29:05;35.00;51.00
1880;DHT22;49285;49.002;8.390;2022-08-05T12:31:32;35.40;50.50
1880;DHT22;49285;49.002;8.390;2022-08-05T12:34:03;35.40;50.40
1880;DHT22;49285;49.002;8.390;2022-08-05T12:36:30;35.40;50.40
1880;DHT22;49285;49.002;8.390;2022-08-05T12:38:57;35.40;50.20
1880;DHT22;49285;49.002;8.390;2022-08-05T12:41:30;35.60;50.20
1880;DHT22;49285;49.002;8.390;2022-08-05T12:44:01;35.70;50.20
1880;DHT22;49285;49.002;8.390;2022-08-05T12:46:29;35.80;50.00
1880;DHT22;49285;49.002;8.390;2022-08-05T12:49:05;36.00;49.80
1880;DHT22;49285;49.002;8.390;2022-08-05T12:54:24;35.60;49.60
1880;DHT22;49285;49.002;8.390;2022-08-05T12:57:01;35.90;49.60
1880;DHT22;49285;49.002;8.390;2022-08-05T12:59:28;36.00;49.50
1880;DHT22;49285;49.002;8.390;2022-08-05T13:02:06;35.80;49.60
1880;DHT22;49285;49.002;8.390;2022-08-05T13:04:34;35.60;49.80
1880;DHT22;49285;49.002;8.390;2022-08-05T13:07:06;35.30;49.90
1880;DHT22;49285;49.002;8.390;2022-08-05T13:09:33;35.30;50.20
1880;DHT22;49285;49.002;8.390;2022-08-05T13:12:28;35.40;50.50
1880;DHT22;49285;49.002;8.390;2022-08-05T13:14:58;35.30;51.00
1880;DHT22;49285;49.002;8.390;2022-08-05T13:17:27;35.10;51.50
1880;DHT22;49285;49.002;8.390;2022-08-05T13:20:05;35.00;52.30
1880;DHT22;49285;49.002;8.390;2022-08-05T13:22:39;34.40;52.80
1880;DHT22;49285;49.002;8.390;2022-08-05T13:25:07;34.40;53.50
1880;DHT22;49285;49.002;8.390;2022-08-05T13:27:38;34.20;53.90
1880;DHT22;49285;49.002;8.390;2022-08-05T13:30:14;34.20;54.60
1880;DHT22;49285;49.002;8.390;2022-08-05T13:32:40;34.40;54.40
1880;DHT22;49285;49.002;8.390;2022-08-05T13:35:06;34.60;54.30
1880;DHT22;49285;49.002;8.390;2022-08-05T13:37:34;34.80;54.10
1880;DHT22;49285;49.002;8.390;2022-08-05T13:40:00;34.80;53.60
1880;DHT22;49285;49.002;8.390;2022-08-05T13:42:26;34.50;53.80
1880;DHT22;49285;49.002;8.390;2022-08-05T13:44:53;34.30;54.30
1880;DHT22;49285;49.002;8.390;2022-08-05T13:47:19;34.40;54.30
1880;DHT22;49285;49.002;8.390;2022-08-05T13:49:45;34.60;54.10
1880;DHT22;49285;49.002;8.390;2022-08-05T13:52:12;34.40;53.90
1880;DHT22;49285;49.002;8.390;2022-08-05T13:54:39;34.20;54.60
1880;DHT22;49285;49.002;8.390;2022-08-05T13:57:04;34.20;55.00
1880;DHT22;49285;49.002;8.390;2022-08-05T13:59:30;34.50;54.80
1880;DHT22;49285;49.002;8.390;2022-08-05T14:01:57;34.60;54.80
1880;DHT22;49285;49.002;8.390;2022-08-05T14:04:22;34.90;54.20
1880;DHT22;49285;49.002;8.390;2022-08-05T14:07:07;35.10;53.90
1880;DHT22;49285;49.002;8.390;2022-08-05T14:09:34;34.40;54.30
1880;DHT22;49285;49.002;8.390;2022-08-05T14:11:59;34.30;54.50
1880;DHT22;49285;49.002;8.390;2022-08-05T14:14:25;34.20;54.90
1880;DHT22;49285;49.002;8.390;2022-08-05T14:16:51;34.00;54.70
1880;DHT22;49285;49.002;8.390;2022-08-05T14:19:17;34.00;55.10
1880;DHT22;49285;49.002;8.390;2022-08-05T14:21:43;33.90;54.30
1880;DHT22;49285;49.002;8.390;2022-08-05T14:24:08;33.80;54.50
1880;DHT22;49285;49.002;8.390;2022-08-05T14:26:36;34.00;54.40
1880;DHT22;49285;49.002;8.390;2022-08-05T14:29:02;34.30;54.20
1880;DHT22;49285;49.002;8.390;2022-08-05T14:31:29;34.50;53.80
1880;DHT22;49285;49.002;8.390;2022-08-05T14:33:54;34.70;53.90
1880;DHT22;49285;49.002;8.390;2022-08-05T14:36:20;34.90;54.10
1880;DHT22;49285;49.002;8.390;2022-08-05T14:38:46;35.30;53.30
1880;DHT22;49285;49.002;8.390;2022-08-05T14:41:12;35.40;52.60
1880;DHT22;49285;49.002;8.390;2022-08-05T14:43:37;35.70;51.70
1880;DHT22;49285;49.002;8.390;2022-08-05T14:46:03;35.70;51.20
1880;DHT22;49285;49.002;8.390;2022-08-05T14:48:29;35.70;51.00
1880;DHT22;49285;49.002;8.390;2022-08-05T14:50:54;35.20;51.60
1880;DHT22;49285;49.002;8.390;2022-08-05T14:53:20;35.20;52.30
1880;DHT22;49285;49.002;8.390;2022-08-05T14:55:46;35.20;53.10
1880;DHT22;49285;49.002;8.390;2022-08-05T14:58:11;35.10;52.80
1880;DHT22;49285;49.002;8.390;2022-08-05T15:00:38;34.80;53.50
1880;DHT22;49285;49.002;8.390;2022-08-05T15:03:04;34.50;53.90
1880;DHT22;49285;49.002;8.390;2022-08-05T15:05:31;34.60;54.00
1880;DHT22;49285;49.002;8.390;2022-08-05T15:07:57;34.50;54.00
1880;DHT22;49285;49.002;8.390;2022-08-05T15:10:22;34.50;54.10
1880;DHT22;49285;49.002;8.390;2022-08-05T15:12:48;34.30;54.30
1880;DHT22;49285;49.002;8.390;2022-08-05T15:15:14;34.20;54.50
1880;DHT22;49285;49.002;8.390;2022-08-05T15:17:40;34.20;54.50
1880;DHT22;49285;49.002;8.390;2022-08-05T15:20:09;34.10;54.60
1880;DHT22;49285;49.002;8.390;2022-08-05T15:22:36;34.00;54.70
1880;DHT22;49285;49.002;8.390;2022-08-05T15:25:02;33.80;54.50
1880;DHT22;49285;49.002;8.390;2022-08-05T15:27:27;33.60;54.50
1880;DHT22;49285;49.002;8.390;2022-08-05T15:29:53;33.40;54.80
1880;DHT22;49285;49.002;8.390;2022-08-05T15:32:19;33.30;55.20
1880;DHT22;49285;49.002;8.390;2022-08-05T15:34:44;33.20;55.10
1880;DHT22;49285;49.002;8.390;2022-08-05T15:37:10;33.10;55.30
1880;DHT22;49285;49.002;8.390;2022-08-05T15:39:35;32.80;55.40
1880;DHT22;49285;49.002;8.390;2022-08-05T15:42:01;32.80;55.70
1880;DHT22;49285;49.002;8.390;2022-08-05T15:44:28;32.60;56.00
1880;DHT22;49285;49.002;8.390;2022-08-05T15:46:54;32.50;56.10
1880;DHT22;49285;49.002;8.390;2022-08-05T15:49:19;32.40;56.30
1880;DHT22;49285;49.002;8.390;2022-08-05T15:51:45;32.40;56.40
1880;DHT22;49285;49.002;8.390;2022-08-05T15:54:11;32.40;56.60
1880;DHT22;49285;49.002;8.390;2022-08-05T15:56:37;32.30;56.50
1880;DHT22;49285;49.002;8.390;2022-08-05T15:59:03;32.30;56.90
1880;DHT22;49285;49.002;8.390;2022-08-05T16:01:28;32.30;57.50
1880;DHT22;49285;49.002;8.390;2022-08-05T16:03:54;32.20;57.00
1880;DHT22;49285;49.002;8.390;2022-08-05T16:06:19;32.00;57.20
1880;DHT22;49285;49.002;8.390;2022-08-05T16:08:48;31.90;57.50
1880;DHT22;49285;49.002;8.390;2022-08-05T16:11:14;31.70;57.80
1880;DHT22;49285;49.002;8.390;2022-08-05T16:13:39;31.60;57.90
1880;DHT22;49285;49.002;8.390;2022-08-05T16:16:05;31.50;58.40
1880;DHT22;49285;49.002;8.390;2022-08-05T16:18:31;31.50;58.60
1880;DHT22;49285;49.002;8.390;2022-08-05T16:21:00;31.40;58.70
1880;DHT22;49285;49.002;8.390;2022-08-05T16:23:28;31.30;58.90
1880;DHT22;49285;49.002;8.390;2022-08-05T16:26:07;31.30;59.20
1880;DHT22;49285;49.002;8.390;2022-08-05T16:28:37;31.30;59.30
1880;DHT22;49285;49.002;8.390;2022-08-05T16:31:04;31.10;61.60
1880;DHT22;49285;49.002;8.390;2022-08-05T16:33:29;31.00;62.50
1880;DHT22;49285;49.002;8.390;2022-08-05T16:36:03;30.90;63.30
1880;DHT22;49285;49.002;8.390;2022-08-05T16:38:30;30.60;64.50
1880;DHT22;49285;49.002;8.390;2022-08-05T16:40:57;30.50;65.30
1880;DHT22;49285;49.002;8.390;2022-08-05T16:43:23;30.30;67.40
1880;DHT22;49285;49.002;8.390;2022-08-05T16:45:50;30.20;65.80